createdAt,value
2018-07-23T00:02:40.896Z,15.07
2018-07-23T00:07:43.385Z,17.27
2018-07-23T00:12:45.897Z,16.00
2018-07-23T00:17:48.380Z,16.17
2018-07-23T00:23:03.588Z,11.33
2018-07-23T00:28:15.032Z,17.27
2018-07-23T00:38:35.549Z,17.37
2018-07-23T00:43:53.791Z,16.33
2018-07-23T00:49:00.481Z,16.73
2018-07-23T01:04:34.210Z,19.40
2018-07-23T01:09:49.076Z,15.60
2018-07-23T01:14:51.761Z,13.47
2018-07-23T01:25:17.278Z,13.87
2018-07-23T01:35:38.505Z,15.53
2018-07-23T01:40:43.282Z,13.90
2018-07-23T01:45:52.312Z,20.20
2018-07-23T01:50:59.679Z,16.93
2018-07-23T02:01:12.293Z,15.03
2018-07-23T02:06:14.778Z,15.60
2018-07-23T02:11:17.265Z,15.00
2018-07-23T02:16:19.749Z,14.53
2018-07-23T02:21:23.004Z,14.00
2018-07-23T02:26:59.855Z,17.80
2018-07-23T02:32:02.365Z,15.60
2018-07-23T02:37:04.857Z,14.83
2018-07-23T02:42:07.344Z,16.93
2018-07-23T02:47:09.834Z,13.63
2018-07-23T02:52:12.323Z,16.83
2018-07-23T02:57:14.814Z,16.60
2018-07-23T03:02:18.062Z,14.37
2018-07-23T03:07:20.556Z,15.67
2018-07-23T03:12:23.045Z,18.47
2018-07-23T03:17:25.556Z,17.90
2018-07-23T03:22:28.048Z,16.40
2018-07-23T03:27:30.531Z,18.50
2018-07-23T03:32:33.021Z,13.10
2018-07-23T03:37:35.529Z,14.70
2018-07-23T03:42:38.013Z,21.67
2018-07-23T03:47:40.518Z,18.33
2018-07-23T03:52:43.007Z,18.13
2018-07-23T03:57:45.492Z,22.07
2018-07-23T04:02:47.987Z,16.97
2018-07-23T04:07:50.498Z,15.77
2018-07-23T04:12:52.964Z,17.30
2018-07-23T04:17:55.460Z,16.43
2018-07-23T04:22:57.945Z,18.70
2018-07-23T04:28:00.433Z,17.93
2018-07-23T04:33:12.289Z,18.70
2018-07-23T04:38:20.813Z,19.47
2018-07-23T04:43:30.853Z,17.30
2018-07-23T04:48:38.792Z,16.30
2018-07-23T04:53:47.817Z,22.00
2018-07-23T04:58:57.373Z,15.60
2018-07-23T05:03:59.905Z,13.60
2018-07-23T05:09:03.517Z,17.80
2018-07-23T05:14:07.904Z,17.40
2018-07-23T05:19:17.501Z,16.33
2018-07-23T05:24:23.677Z,18.53
2018-07-23T05:29:28.590Z,17.23
2018-07-23T05:34:34.235Z,17.57
2018-07-23T05:39:38.938Z,18.20
2018-07-23T05:44:44.522Z,17.30
2018-07-23T05:55:01.104Z,19.13
2018-07-23T06:00:06.383Z,18.47
2018-07-23T06:05:09.749Z,20.40
2018-07-23T06:10:12.249Z,19.00
2018-07-23T06:15:14.736Z,18.47
2018-07-23T06:20:17.221Z,20.70
2018-07-23T06:25:20.497Z,17.00
2018-07-23T06:30:23.011Z,19.33
2018-07-23T06:35:25.468Z,21.17
2018-07-23T06:40:27.957Z,17.07
2018-07-23T06:45:30.457Z,16.37
2018-07-23T06:50:33.006Z,18.70
2018-07-23T06:55:35.468Z,14.83
2018-07-23T07:00:38.008Z,20.77
2018-07-23T07:05:42.025Z,19.40
2018-07-23T07:10:45.189Z,17.27
2018-07-23T07:15:53.561Z,13.87
2018-07-23T07:21:01.713Z,15.33
2018-07-23T07:26:06.729Z,17.87
2018-07-23T07:31:10.028Z,13.33
2018-07-23T07:36:12.512Z,16.00
2018-07-23T07:41:14.996Z,13.67
2018-07-23T07:46:17.485Z,14.20
2018-07-23T07:51:19.977Z,15.77
2018-07-23T07:56:22.462Z,15.90
2018-07-23T08:01:24.962Z,10.57
2018-07-23T08:06:27.442Z,10.53
2018-07-23T08:11:29.934Z,11.30
2018-07-23T08:16:32.418Z,14.60
2018-07-23T08:21:34.901Z,15.07
2018-07-23T08:26:37.385Z,9.33
2018-07-23T08:31:39.981Z,17.70
2018-07-23T08:36:42.372Z,9.37
2018-07-23T08:41:44.861Z,15.63
2018-07-23T08:46:47.345Z,9.90
2018-07-23T08:51:50.613Z,9.33
2018-07-23T08:56:53.101Z,11.40
2018-07-23T09:01:55.592Z,11.63
2018-07-23T09:06:58.069Z,11.53
2018-07-23T09:12:00.595Z,7.80
2018-07-23T09:17:03.064Z,9.93
2018-07-23T09:22:05.561Z,8.73
2018-07-23T09:27:08.036Z,14.73
2018-07-23T09:32:10.522Z,8.30
2018-07-23T09:37:13.823Z,7.37
2018-07-23T09:42:16.361Z,7.47
2018-07-23T09:47:18.848Z,6.40
2018-07-23T09:52:21.325Z,7.97
2018-07-23T09:57:23.892Z,8.30
2018-07-23T10:02:26.360Z,6.33
2018-07-23T10:07:28.848Z,7.80
2018-07-23T10:12:31.341Z,9.60
2018-07-23T10:17:33.820Z,11.30
2018-07-23T10:22:36.305Z,7.87
2018-07-23T10:27:38.785Z,9.57
2018-07-23T10:32:41.276Z,7.83
2018-07-23T10:37:43.753Z,6.37
2018-07-23T10:42:46.228Z,7.40
2018-07-23T10:47:48.712Z,5.90
2018-07-23T10:52:51.960Z,6.57
2018-07-23T10:57:54.449Z,5.97
2018-07-23T11:02:56.940Z,8.47
2018-07-23T11:07:59.416Z,6.83
2018-07-23T11:13:01.893Z,8.93
2018-07-23T11:18:04.384Z,7.10
2018-07-23T11:23:06.868Z,8.07
2018-07-23T11:28:09.359Z,7.50
2018-07-23T11:33:11.844Z,5.57
2018-07-23T11:38:14.330Z,6.30
2018-07-23T11:43:16.817Z,7.83
2018-07-23T11:48:19.313Z,6.37
2018-07-23T11:53:21.807Z,7.00
2018-07-23T11:58:24.278Z,5.67
2018-07-23T12:03:27.456Z,5.63
2018-07-23T12:08:35.282Z,5.93
2018-07-23T12:13:37.790Z,7.70
2018-07-23T12:18:40.281Z,5.93
2018-07-23T12:23:42.765Z,6.57
2018-07-23T12:28:45.245Z,8.73
2018-07-23T12:33:47.725Z,5.03
2018-07-23T12:38:50.219Z,6.93
2018-07-23T12:43:57.883Z,5.27
2018-07-23T12:49:00.568Z,5.80
2018-07-23T12:54:03.067Z,7.13
2018-07-23T12:59:05.558Z,5.63
2018-07-23T13:04:08.069Z,6.27
2018-07-23T13:09:10.933Z,8.40
2018-07-23T13:14:13.448Z,6.30
2018-07-23T13:19:16.750Z,7.10
2018-07-23T13:24:19.197Z,6.43
2018-07-23T13:29:21.696Z,6.47
2018-07-23T13:34:24.188Z,7.27
2018-07-23T13:39:26.701Z,6.40
2018-07-23T13:44:29.181Z,7.77
2018-07-23T13:49:31.690Z,6.70
2018-07-23T13:54:34.437Z,3.80
2018-07-23T13:59:36.958Z,4.97
2018-07-23T14:04:39.445Z,5.20
2018-07-23T14:09:41.948Z,6.00
2018-07-23T14:14:52.034Z,6.83
2018-07-23T14:19:57.555Z,4.97
2018-07-23T14:25:00.822Z,4.13
2018-07-23T14:30:05.093Z,3.40
2018-07-23T14:35:11.256Z,4.47
2018-07-23T14:40:13.800Z,3.10
2018-07-23T14:45:16.277Z,2.97
2018-07-23T14:50:18.748Z,3.43
2018-07-23T14:55:21.240Z,2.30
2018-07-23T15:00:23.725Z,2.47
2018-07-23T15:05:26.217Z,3.67
2018-07-23T15:10:28.694Z,2.30
2018-07-23T15:15:31.183Z,2.93
2018-07-23T15:20:33.682Z,3.73
2018-07-23T15:25:36.170Z,2.90
2018-07-23T15:30:39.424Z,3.67
2018-07-23T15:35:41.905Z,3.27
2018-07-23T15:40:44.389Z,2.90
2018-07-23T15:45:53.800Z,3.03
2018-07-23T15:50:56.489Z,3.20
2018-07-23T15:56:04.955Z,2.50
2018-07-23T16:01:07.820Z,2.20
2018-07-23T16:06:10.316Z,2.13
2018-07-23T16:11:12.804Z,3.37
2018-07-23T16:16:15.300Z,3.03
2018-07-23T16:21:17.786Z,3.27
2018-07-23T16:26:20.276Z,3.60
2018-07-23T16:31:22.817Z,3.17
2018-07-23T16:36:25.267Z,3.23
2018-07-23T16:41:27.748Z,5.43
2018-07-23T16:46:34.840Z,4.83
2018-07-23T16:51:37.363Z,5.47
2018-07-23T16:56:40.620Z,5.30
2018-07-23T17:01:43.137Z,11.70
2018-07-23T17:06:45.628Z,5.07
2018-07-23T17:11:48.119Z,5.27
2018-07-23T17:16:50.620Z,5.77
2018-07-23T17:21:53.119Z,5.73
2018-07-23T17:26:55.595Z,8.33
2018-07-23T17:31:58.080Z,6.07
2018-07-23T17:37:00.560Z,6.17
2018-07-23T17:42:03.044Z,6.57
2018-07-23T17:47:05.553Z,6.27
2018-07-23T17:52:13.285Z,4.60
2018-07-23T17:57:16.691Z,6.33
2018-07-23T18:02:19.682Z,6.10
2018-07-23T18:07:22.179Z,8.93
2018-07-23T18:12:24.690Z,6.60
2018-07-23T18:17:27.967Z,5.70
2018-07-23T18:22:32.947Z,7.20
2018-07-23T18:32:57.090Z,7.57
2018-07-23T18:37:59.811Z,7.00
2018-07-23T18:43:03.053Z,6.07
2018-07-23T18:48:05.538Z,7.90
2018-07-23T18:53:08.028Z,8.60
2018-07-23T18:58:10.514Z,8.93
2018-07-23T19:03:12.998Z,5.40
2018-07-23T19:08:15.492Z,10.53
2018-07-23T19:13:18.008Z,6.47
2018-07-23T19:18:20.496Z,5.43
2018-07-23T19:23:22.983Z,12.00
2018-07-23T19:28:25.511Z,9.00
2018-07-23T19:33:28.011Z,8.40
2018-07-23T19:38:30.502Z,5.60
2018-07-23T19:43:33.021Z,5.50
2018-07-23T19:48:35.536Z,6.43
2018-07-23T19:53:38.084Z,5.90
2018-07-23T19:58:40.583Z,5.67
2018-07-23T20:03:43.092Z,6.17
2018-07-23T20:08:45.589Z,6.10
2018-07-23T20:13:48.094Z,5.20
2018-07-23T20:18:50.588Z,5.93
2018-07-23T20:23:53.089Z,11.20
2018-07-23T20:28:55.581Z,8.90
2018-07-23T20:33:58.890Z,6.00
2018-07-23T20:39:01.389Z,5.90
2018-07-23T20:44:04.100Z,10.17
2018-07-23T20:49:06.584Z,7.17
2018-07-23T20:54:09.085Z,9.47
2018-07-23T20:59:11.557Z,7.10
2018-07-23T21:04:14.041Z,8.37
2018-07-23T21:09:16.529Z,7.70
2018-07-23T21:14:19.270Z,8.40
2018-07-23T21:19:21.763Z,20.30
2018-07-23T21:24:24.285Z,10.60
2018-07-23T21:29:26.770Z,7.67
2018-07-23T21:34:30.016Z,8.37
2018-07-23T21:39:32.504Z,7.50
2018-07-23T21:44:34.992Z,11.07
2018-07-23T21:49:37.476Z,9.70
2018-07-23T21:54:39.967Z,8.70
2018-07-23T21:59:42.455Z,6.80
2018-07-23T22:04:44.956Z,5.67
2018-07-23T22:09:47.468Z,9.40
2018-07-23T22:14:50.713Z,7.33
2018-07-23T22:19:53.216Z,10.37
2018-07-23T22:24:55.698Z,7.73
2018-07-23T22:29:58.277Z,10.20
2018-07-23T22:35:00.760Z,11.00
2018-07-23T22:40:03.265Z,10.03
2018-07-23T22:45:05.768Z,11.40
2018-07-23T22:50:08.264Z,12.00
2018-07-23T22:55:11.558Z,9.10
2018-07-23T23:00:14.053Z,12.47
2018-07-23T23:05:16.564Z,12.07
2018-07-23T23:10:19.062Z,12.97
2018-07-23T23:15:21.572Z,11.10
2018-07-23T23:20:24.059Z,12.90
2018-07-23T23:25:26.572Z,11.80
2018-07-23T23:30:29.067Z,9.60
2018-07-23T23:35:32.320Z,12.83
2018-07-23T23:40:34.884Z,12.50
2018-07-23T23:45:37.357Z,12.50
2018-07-23T23:50:39.868Z,13.63
2018-07-23T23:55:42.352Z,12.70
